Pongnae — 3FDZ8 — position and weather

sailwx.info

Track history (hours):
 
Tides and Currents Weather Stations Pressure Air Temp Water Temp Dewpoint Dewpoint Depression Visibility Wind Speed Wind Dir Waves Ship Positions

Pongnae

Operator: V Ships Leisure SAM

Last reported at 2016-May-05 04:33 UTC. Time now 2016-May-05 04:45 UTC.
Position N 22°18' E 114°13'.

Length 171 m; draft 6.6 m.

Type: Passenger vessel. MMSI: 353669000.

Date/timePositionNaut miles runAvg speedWind from/ knotsBaromVisibWave heightAir tempDewpointWater temp
2016-May-05 04:33N 22°18' E 114°13'0 0.0
2016-May-05 03:33N 22°18' E 114°13'0 0.0
2016-May-05 02:33N 22°18' E 114°13'0 0.0
2016-May-05 01:33N 22°18' E 114°13'0 0.1
2016-May-05 00:33N 22°18' E 114°13'2 1.5
2016-May-04 23:33N 22°17' E 114°15'1 0.1
2016-May-04 12:33N 22°17' E 114°15'2 2.0
2016-May-04 11:31N 22°18' E 114°13'0 0.0
2016-May-04 10:31N 22°18' E 114°13'0 0.0
2016-May-04 09:31N 22°18' E 114°13'0 0.0
2016-May-04 08:31N 22°18' E 114°13'0 0.0
2016-May-04 07:31N 22°18' E 114°13'0 0.0
2016-May-04 06:31N 22°18' E 114°13'0 0.1
2016-May-04 05:31N 22°18' E 114°13'0 0.0
2016-May-04 04:31N 22°18' E 114°13'0 0.0
2016-May-04 03:31N 22°18' E 114°13'0 0.0
2016-May-04 02:31N 22°18' E 114°13'0 0.0
2016-May-04 01:31N 22°18' E 114°13'0 0.1
2016-May-04 00:31N 22°18' E 114°13'1 0.7
2016-May-03 23:33N 22°17' E 114°14'7 0.7
2016-May-03 13:05N 22°12' E 114°19'611.5
2016-May-03 12:33N 22°17' E 114°15'2 2.0
2016-May-03 11:33N 22°18' E 114°13'0 0.0
2016-May-03 10:33N 22°18' E 114°13'0 0.0
2016-May-03 09:33N 22°18' E 114°13'0 0.0
2016-May-03 08:33N 22°18' E 114°13'0 0.0
2016-May-03 07:27N 22°18' E 114°13'0 0.0
2016-May-03 06:33N 22°18' E 114°13'0 0.0
2016-May-03 05:33N 22°18' E 114°13'0 0.0
2016-May-03 04:33N 22°18' E 114°13'0 0.1
2016-May-03 03:33N 22°18' E 114°13'0 0.0
2016-May-03 02:33N 22°18' E 114°13'0 0.1
2016-May-03 01:33N 22°18' E 114°13'0 0.1
2016-May-03 00:34N 22°18' E 114°13'2 1.6
2016-May-02 23:34N 22°17' E 114°15'5 0.5
2016-May-02 13:08N 22°13' E 114°18'611.0
2016-May-02 12:33N 22°18' E 114°14'0 0.4
2016-May-02 11:33N 22°18' E 114°13'0 0.0
2016-May-02 10:33N 22°18' E 114°13'0 0.0
2016-May-02 09:33N 22°18' E 114°13'0 0.1
2016-May-02 08:33N 22°18' E 114°13'0 0.0
2016-May-02 07:33N 22°18' E 114°13'0 0.0
2016-May-02 06:33N 22°18' E 114°13'0 0.0
2016-May-02 05:33N 22°18' E 114°13'0 0.0
2016-May-02 04:33N 22°18' E 114°13'0 0.0
2016-May-02 03:33N 22°18' E 114°13'0 0.1
2016-May-02 02:33N 22°18' E 114°13'0 0.1
2016-May-02 01:33N 22°18' E 114°13'0 0.0
2016-May-02 00:33N 22°18' E 114°13'1 1.2
2016-May-01 23:33N 22°17' E 114°14'1 0.1
2016-May-01 12:33N 22°17' E 114°15'2 2.0
2016-May-01 11:32N 22°18' E 114°13'0 0.1
2016-May-01 10:32N 22°18' E 114°13'0 0.0
2016-May-01 09:32N 22°18' E 114°13'0 0.0
2016-May-01 08:32N 22°18' E 114°13'0 0.0
2016-May-01 07:32N 22°18' E 114°13'0 0.0
2016-May-01 06:32N 22°18' E 114°13'0 0.0
2016-May-01 05:32N 22°18' E 114°13'0 0.0
2016-May-01 04:32N 22°18' E 114°13'0 0.0
2016-May-01 03:32N 22°18' E 114°13'0 0.0
2016-May-01 02:32N 22°18' E 114°13'0 0.0
2016-May-01 01:32N 22°18' E 114°13'0 0.0
2016-May-01 00:32N 22°18' E 114°13'1 0.7
2016-Apr-30 23:33N 22°17' E 114°14'6 0.6
2016-Apr-30 13:08N 22°12' E 114°18'610.5
2016-Apr-30 12:33N 22°17' E 114°14'1 0.9
2016-Apr-30 11:34N 22°18' E 114°13'0 0.0
2016-Apr-30 10:33N 22°18' E 114°13'0 0.0
2016-Apr-30 09:27N 22°18' E 114°13'0 0.0
2016-Apr-30 08:33N 22°18' E 114°13'0 0.0
2016-Apr-30 07:33N 22°18' E 114°13'0 0.0
2016-Apr-30 06:33N 22°18' E 114°13'0 0.0
2016-Apr-30 05:33N 22°18' E 114°13'0 0.0
2016-Apr-30 04:33N 22°18' E 114°13'0 0.0
2016-Apr-30 03:33N 22°18' E 114°13'0 0.0
2016-Apr-30 02:33N 22°18' E 114°13'0 0.0
2016-Apr-30 01:33N 22°18' E 114°13'0 0.0
2016-Apr-30 00:33N 22°18' E 114°13'1 1.1
2016-Apr-29 23:33N 22°17' E 114°14'6 0.6
2016-Apr-29 13:04N 22°12' E 114°18'611.0
2016-Apr-29 12:33N 22°17' E 114°15'2 1.7
2016-Apr-29 11:33N 22°18' E 114°13'0 0.0
2016-Apr-29 10:31N 22°18' E 114°13'0 0.0
2016-Apr-29 09:34N 22°18' E 114°13'0 0.0
2016-Apr-29 08:33N 22°18' E 114°13'0 0.0
2016-Apr-29 07:33N 22°18' E 114°13'0 0.0
2016-Apr-29 06:33N 22°18' E 114°13'0 0.0
2016-Apr-29 05:33N 22°18' E 114°13'0 0.0
2016-Apr-29 04:33N 22°18' E 114°13'0 0.0
2016-Apr-29 03:33N 22°18' E 114°13'0 0.0
2016-Apr-29 02:33N 22°18' E 114°13'0 0.0
2016-Apr-29 01:33N 22°18' E 114°13'0 0.0
2016-Apr-29 00:33N 22°18' E 114°13'1 0.8
2016-Apr-28 23:34N 22°17' E 114°14'8 7.9
2016-Apr-28 22:29N 22°11' E 114°20'3 0.3
2016-Apr-28 13:06N 22°13' E 114°18'610.4
2016-Apr-28 12:33N 22°17' E 114°14'2 1.8
2016-Apr-28 11:33N 22°18' E 114°12'0 0.0
2016-Apr-28 10:33N 22°18' E 114°12'0 0.0
2016-Apr-28 09:33N 22°18' E 114°12'0 0.0
2016-Apr-28 08:33N 22°18' E 114°12'0 0.0
2016-Apr-28 07:33N 22°18' E 114°12'0 0.0
2016-Apr-28 06:33N 22°18' E 114°12'0 0.0
2016-Apr-28 05:30N 22°18' E 114°12'0 0.0
2016-Apr-28 04:33N 22°18' E 114°12'0 0.1
2016-Apr-28 03:32N 22°18' E 114°12'0 0.0
2016-Apr-28 02:32N 22°18' E 114°12'0 0.0
2016-Apr-28 01:32N 22°18' E 114°12'0 0.0
2016-Apr-28 00:32N 22°18' E 114°12'2 2.1
2016-Apr-27 23:34N 22°17' E 114°14'9 7.8
2016-Apr-27 22:25N 22°10' E 114°20'8 0.8
2016-Apr-27 12:33N 22°17' E 114°15'2 1.6
2016-Apr-27 11:33N 22°18' E 114°13'0 0.0
2016-Apr-27 10:32N 22°18' E 114°13'0 0.0
2016-Apr-27 09:32N 22°18' E 114°13'0 0.1
2016-Apr-27 08:32N 22°18' E 114°13'0 0.0
2016-Apr-27 07:32N 22°18' E 114°13'0 0.0
2016-Apr-27 06:32N 22°18' E 114°13'0 0.0
2016-Apr-27 05:32N 22°18' E 114°13'0 0.1
2016-Apr-27 04:32N 22°18' E 114°13'0 0.0
2016-Apr-27 03:32N 22°18' E 114°13'0 0.1
2016-Apr-27 02:32N 22°18' E 114°13'0 0.0
2016-Apr-27 01:32N 22°18' E 114°13'0 0.0
2016-Apr-27 00:32N 22°18' E 114°13'1 0.7
2016-Apr-26 23:33N 22°17' E 114°14'7 0.6
2016-Apr-26 13:08N 22°12' E 114°19'610.7
2016-Apr-26 12:33N 22°17' E 114°14'1 1.3
2016-Apr-26 11:33N 22°18' E 114°13'0 0.0
2016-Apr-26 10:32N 22°18' E 114°13'0 0.0
2016-Apr-26 09:32N 22°18' E 114°13'0 0.0
2016-Apr-26 08:32N 22°18' E 114°13'0 0.0
2016-Apr-26 07:32N 22°18' E 114°13'0 0.1
2016-Apr-26 06:32N 22°18' E 114°13'0 0.1
2016-Apr-26 05:32N 22°18' E 114°13'0 0.1
2016-Apr-26 04:29N 22°18' E 114°13'0 0.0
2016-Apr-26 03:32N 22°18' E 114°13'0 0.1
2016-Apr-26 02:32N 22°18' E 114°13'0 0.0
2016-Apr-26 01:32N 22°18' E 114°13'0 0.1
2016-Apr-26 00:32N 22°18' E 114°13'1 0.9
2016-Apr-25 23:33N 22°17' E 114°14'6 0.6
2016-Apr-25 13:11N 22°12' E 114°18'610.1
2016-Apr-25 12:33N 22°17' E 114°14'1 0.8
2016-Apr-25 11:33N 22°18' E 114°13'0 0.0
2016-Apr-25 10:32N 22°18' E 114°13'0 0.1
2016-Apr-25 09:32N 22°18' E 114°13'0 0.0
2016-Apr-25 08:32N 22°18' E 114°13'0 0.1
2016-Apr-25 07:32N 22°18' E 114°13'0 0.0
2016-Apr-25 06:32N 22°18' E 114°13'0 0.0
2016-Apr-25 05:32N 22°18' E 114°13'  
Track history (hours):
 
Tides and Currents Weather Stations Pressure Air Temp Water Temp Dewpoint Dewpoint Depression Visibility Wind Speed Wind Dir Waves Ship Positions

Pongnae

Operator: V Ships Leisure SAM

Last reported at 2016-May-05 04:33 UTC. Time now 2016-May-05 04:45 UTC.
Position N 22°18' E 114°13'.

Length 171 m; draft 6.6 m.

Type: Passenger vessel. MMSI: 353669000.

Date/timePositionNaut miles runAvg speedWind from/ knotsBaromVisibWave heightAir tempDewpointWater temp
2016-May-05 04:33N 22°18' E 114°13'0 0.0
2016-May-05 03:33N 22°18' E 114°13'0 0.0
2016-May-05 02:33N 22°18' E 114°13'0 0.0
2016-May-05 01:33N 22°18' E 114°13'0 0.1
2016-May-05 00:33N 22°18' E 114°13'2 1.5
2016-May-04 23:33N 22°17' E 114°15'1 0.1
2016-May-04 12:33N 22°17' E 114°15'2 2.0
2016-May-04 11:31N 22°18' E 114°13'0 0.0
2016-May-04 10:31N 22°18' E 114°13'0 0.0
2016-May-04 09:31N 22°18' E 114°13'0 0.0
2016-May-04 08:31N 22°18' E 114°13'0 0.0
2016-May-04 07:31N 22°18' E 114°13'0 0.0
2016-May-04 06:31N 22°18' E 114°13'0 0.1
2016-May-04 05:31N 22°18' E 114°13'0 0.0
2016-May-04 04:31N 22°18' E 114°13'0 0.0
2016-May-04 03:31N 22°18' E 114°13'0 0.0
2016-May-04 02:31N 22°18' E 114°13'0 0.0
2016-May-04 01:31N 22°18' E 114°13'0 0.1
2016-May-04 00:31N 22°18' E 114°13'1 0.7
2016-May-03 23:33N 22°17' E 114°14'7 0.7
2016-May-03 13:05N 22°12' E 114°19'611.5
2016-May-03 12:33N 22°17' E 114°15'2 2.0
2016-May-03 11:33N 22°18' E 114°13'0 0.0
2016-May-03 10:33N 22°18' E 114°13'0 0.0
2016-May-03 09:33N 22°18' E 114°13'0 0.0
2016-May-03 08:33N 22°18' E 114°13'0 0.0
2016-May-03 07:27N 22°18' E 114°13'0 0.0
2016-May-03 06:33N 22°18' E 114°13'0 0.0
2016-May-03 05:33N 22°18' E 114°13'0 0.0
2016-May-03 04:33N 22°18' E 114°13'0 0.1
2016-May-03 03:33N 22°18' E 114°13'0 0.0
2016-May-03 02:33N 22°18' E 114°13'0 0.1
2016-May-03 01:33N 22°18' E 114°13'0 0.1
2016-May-03 00:34N 22°18' E 114°13'2 1.6
2016-May-02 23:34N 22°17' E 114°15'5 0.5
2016-May-02 13:08N 22°13' E 114°18'611.0
2016-May-02 12:33N 22°18' E 114°14'0 0.4
2016-May-02 11:33N 22°18' E 114°13'0 0.0
2016-May-02 10:33N 22°18' E 114°13'0 0.0
2016-May-02 09:33N 22°18' E 114°13'0 0.1
2016-May-02 08:33N 22°18' E 114°13'0 0.0
2016-May-02 07:33N 22°18' E 114°13'0 0.0
2016-May-02 06:33N 22°18' E 114°13'0 0.0
2016-May-02 05:33N 22°18' E 114°13'0 0.0
2016-May-02 04:33N 22°18' E 114°13'0 0.0
2016-May-02 03:33N 22°18' E 114°13'0 0.1
2016-May-02 02:33N 22°18' E 114°13'0 0.1
2016-May-02 01:33N 22°18' E 114°13'0 0.0
2016-May-02 00:33N 22°18' E 114°13'1 1.2
2016-May-01 23:33N 22°17' E 114°14'1 0.1
2016-May-01 12:33N 22°17' E 114°15'2 2.0
2016-May-01 11:32N 22°18' E 114°13'0 0.1
2016-May-01 10:32N 22°18' E 114°13'0 0.0
2016-May-01 09:32N 22°18' E 114°13'0 0.0
2016-May-01 08:32N 22°18' E 114°13'0 0.0
2016-May-01 07:32N 22°18' E 114°13'0 0.0
2016-May-01 06:32N 22°18' E 114°13'0 0.0
2016-May-01 05:32N 22°18' E 114°13'0 0.0
2016-May-01 04:32N 22°18' E 114°13'0 0.0
2016-May-01 03:32N 22°18' E 114°13'0 0.0
2016-May-01 02:32N 22°18' E 114°13'0 0.0
2016-May-01 01:32N 22°18' E 114°13'0 0.0
2016-May-01 00:32N 22°18' E 114°13'1 0.7
2016-Apr-30 23:33N 22°17' E 114°14'6 0.6
2016-Apr-30 13:08N 22°12' E 114°18'610.5
2016-Apr-30 12:33N 22°17' E 114°14'1 0.9
2016-Apr-30 11:34N 22°18' E 114°13'0 0.0
2016-Apr-30 10:33N 22°18' E 114°13'0 0.0
2016-Apr-30 09:27N 22°18' E 114°13'0 0.0
2016-Apr-30 08:33N 22°18' E 114°13'0 0.0
2016-Apr-30 07:33N 22°18' E 114°13'0 0.0
2016-Apr-30 06:33N 22°18' E 114°13'0 0.0
2016-Apr-30 05:33N 22°18' E 114°13'0 0.0
2016-Apr-30 04:33N 22°18' E 114°13'0 0.0
2016-Apr-30 03:33N 22°18' E 114°13'0 0.0
2016-Apr-30 02:33N 22°18' E 114°13'0 0.0
2016-Apr-30 01:33N 22°18' E 114°13'0 0.0
2016-Apr-30 00:33N 22°18' E 114°13'1 1.1
2016-Apr-29 23:33N 22°17' E 114°14'6 0.6
2016-Apr-29 13:04N 22°12' E 114°18'611.0
2016-Apr-29 12:33N 22°17' E 114°15'2 1.7
2016-Apr-29 11:33N 22°18' E 114°13'0 0.0
2016-Apr-29 10:31N 22°18' E 114°13'0 0.0
2016-Apr-29 09:34N 22°18' E 114°13'0 0.0
2016-Apr-29 08:33N 22°18' E 114°13'0 0.0
2016-Apr-29 07:33N 22°18' E 114°13'0 0.0
2016-Apr-29 06:33N 22°18' E 114°13'0 0.0
2016-Apr-29 05:33N 22°18' E 114°13'0 0.0
2016-Apr-29 04:33N 22°18' E 114°13'0 0.0
2016-Apr-29 03:33N 22°18' E 114°13'0 0.0
2016-Apr-29 02:33N 22°18' E 114°13'0 0.0
2016-Apr-29 01:33N 22°18' E 114°13'0 0.0
2016-Apr-29 00:33N 22°18' E 114°13'1 0.8
2016-Apr-28 23:34N 22°17' E 114°14'8 7.9
2016-Apr-28 22:29N 22°11' E 114°20'3 0.3
2016-Apr-28 13:06N 22°13' E 114°18'610.4
2016-Apr-28 12:33N 22°17' E 114°14'2 1.8
2016-Apr-28 11:33N 22°18' E 114°12'0 0.0
2016-Apr-28 10:33N 22°18' E 114°12'0 0.0
2016-Apr-28 09:33N 22°18' E 114°12'0 0.0
2016-Apr-28 08:33N 22°18' E 114°12'0 0.0
2016-Apr-28 07:33N 22°18' E 114°12'0 0.0
2016-Apr-28 06:33N 22°18' E 114°12'0 0.0
2016-Apr-28 05:30N 22°18' E 114°12'0 0.0
2016-Apr-28 04:33N 22°18' E 114°12'0 0.1
2016-Apr-28 03:32N 22°18' E 114°12'0 0.0
2016-Apr-28 02:32N 22°18' E 114°12'0 0.0
2016-Apr-28 01:32N 22°18' E 114°12'0 0.0
2016-Apr-28 00:32N 22°18' E 114°12'2 2.1
2016-Apr-27 23:34N 22°17' E 114°14'9 7.8
2016-Apr-27 22:25N 22°10' E 114°20'8 0.8
2016-Apr-27 12:33N 22°17' E 114°15'2 1.6
2016-Apr-27 11:33N 22°18' E 114°13'0 0.0
2016-Apr-27 10:32N 22°18' E 114°13'0 0.0
2016-Apr-27 09:32N 22°18' E 114°13'0 0.1
2016-Apr-27 08:32N 22°18' E 114°13'0 0.0
2016-Apr-27 07:32N 22°18' E 114°13'0 0.0
2016-Apr-27 06:32N 22°18' E 114°13'0 0.0
2016-Apr-27 05:32N 22°18' E 114°13'0 0.1
2016-Apr-27 04:32N 22°18' E 114°13'0 0.0
2016-Apr-27 03:32N 22°18' E 114°13'0 0.1
2016-Apr-27 02:32N 22°18' E 114°13'0 0.0
2016-Apr-27 01:32N 22°18' E 114°13'0 0.0
2016-Apr-27 00:32N 22°18' E 114°13'1 0.7
2016-Apr-26 23:33N 22°17' E 114°14'7 0.6
2016-Apr-26 13:08N 22°12' E 114°19'610.7
2016-Apr-26 12:33N 22°17' E 114°14'1 1.3
2016-Apr-26 11:33N 22°18' E 114°13'0 0.0
2016-Apr-26 10:32N 22°18' E 114°13'0 0.0
2016-Apr-26 09:32N 22°18' E 114°13'0 0.0
2016-Apr-26 08:32N 22°18' E 114°13'0 0.0
2016-Apr-26 07:32N 22°18' E 114°13'0 0.1
2016-Apr-26 06:32N 22°18' E 114°13'0 0.1
2016-Apr-26 05:32N 22°18' E 114°13'0 0.1
2016-Apr-26 04:29N 22°18' E 114°13'0 0.0
2016-Apr-26 03:32N 22°18' E 114°13'0 0.1
2016-Apr-26 02:32N 22°18' E 114°13'0 0.0
2016-Apr-26 01:32N 22°18' E 114°13'0 0.1
2016-Apr-26 00:32N 22°18' E 114°13'1 0.9
2016-Apr-25 23:33N 22°17' E 114°14'6 0.6
2016-Apr-25 13:11N 22°12' E 114°18'610.1
2016-Apr-25 12:33N 22°17' E 114°14'1 0.8
2016-Apr-25 11:33N 22°18' E 114°13'0 0.0
2016-Apr-25 10:32N 22°18' E 114°13'0 0.1
2016-Apr-25 09:32N 22°18' E 114°13'0 0.0
2016-Apr-25 08:32N 22°18' E 114°13'0 0.1
2016-Apr-25 07:32N 22°18' E 114°13'0 0.0
2016-Apr-25 06:32N 22°18' E 114°13'0 0.0
2016-Apr-25 05:32N 22°18' E 114°13'  

Dump ship's entire track history